CheckWX is a tool to help pilots better visualize weather data.  It is not intended as a substitute for an official pre-flight weather briefing.

06:06:17 UTC

KIMS METAR
Madison Municipal Airport
Madison, Indiana, USA
Current

27 mins ago

KIMS 260539Z AUTO 00000KT 10SM CLR 20/18 A3010 RMK AO1
Observed
Jun-26 @ 05:39 UTC
Visibility
10 SM
Flight Rules
VFR
Cloud Levels
  • Clear skies
Temperature
20°C / 68°F
Dewpoint
18°C / 64°F
Humidity
88%
Altimeter
30.1" Hg
Pressure
1019.32 hPa
Previous

51 mins ago

KIMS 260515Z AUTO 19003KT 10SM CLR 19/18 A3010 RMK AO1
Observed
Jun-26 @ 05:15 UTC
Wind
  • 190° at 3 KTS
Visibility
10 SM
Flight Rules
VFR
Cloud Levels
  • Clear skies
Temperature
19°C / 66°F
Dewpoint
18°C / 64°F
Humidity
94%
Altimeter
30.1" Hg
Pressure
1019.32 hPa
Previous

1 hour ago

KIMS 260455Z AUTO 00000KT 10SM CLR 20/18 A3010 RMK AO1
Observed
Jun-26 @ 04:55 UTC
Visibility
10 SM
Flight Rules
VFR
Cloud Levels
  • Clear skies
Temperature
20°C / 68°F
Dewpoint
18°C / 64°F
Humidity
88%
Altimeter
30.1" Hg
Pressure
1019.32 hPa